Etusivu
METAR-TAF:

METAR-TAF

Lentoasemat :

Örebro, Ruotsi

Örebron lentoasema

Leveyspiiri: 59-14N, Pituuspiiri: 015-03E, korkeus merenpinnasta: 57 m

Tämänhetkinen sää

Tämä raportti tehtiin 15 minuuttia sitten, kello 01.50 UTC
Tuuli 8 kn etelästä
Lämpötila 0°C
Kosteus 100%
Ilmanpaine 1004 hPa
Näkyvyys 10 km tai enemmän

METAR: ESOE 250150Z AUTO 18008KT 9999 NCD 00/00 Q1004

Aika: 03:05 (02:05 UTC)

Sääennuste

Tämä raportti tehtiin 8 tuntia ja 35 minuuttia sitten, kello 17.30 UTC
Ennuste voimassa 24. päivästä klo 18 UTC - 24. päivään klo 22 UTC
Tuuli 7 kn etelästä/lounaasta
Näkyvyys 10 km tai enemmän
ei pilviä alle 1500 m:ssä eikä cumulonimbus-pilviä

TAF: ESOE 241730Z 2418/2422 21007KT CAVOK

Säähavainnot ja -ennusteet yli 4000 lentoasemalta (METAR- ja TAF-raportit).

Käytössä olevat sääasemat on merkitty karttaan keltaisilla ja punaisilla pisteillä.

Aseta hiiri pisteen päälle nähdäksesi sääaseman nimen.

Klikkaa sitten nähdäksesi säähavainnot ja -ennusteet.

Kartan vaihtaminen: klikkaa mustalla rastilla varustettuja vihreitä pisteitä, niin voit zoomata sisään; viivalla varustettua vihreää pistettä, niin voit zoomata ulos tai vihreitä nuolia, niin pääset viereisille kartoille.


METAR-TAF: